[source: ADDS]
METAR
EDVE 040520Z AUTO 11010KT 9999 // FEW051/// OVC063/// 01/M03 Q0990

EDDV 040520Z 12009KT 080V140 9999 -SNRA FEW027 SCT036 01/M01 Q0988 TEMPO 13015G25KT

TAF EDDV 032300Z 0400/0424 13012G24KT 9999 SCT045 BECMG 0414/0416 11007KT ETHS 040458Z 12008KT 7000 -FZRADZ SCT040 BKN060 M01/M03 Q0989 WHT

ETHC 040456Z 11010KT 8000 -FZRA SCT035 BKN050 01/M02 Q0989 BLU

TAF
TAF EDDV 032300Z 0400/0424 13012G24KT 9999 SCT045 BECMG 0414/0416 11007KT

SR / SS: 07:09 / 15:07 UTC (EDVE 2020-12-04)
Mathias hat seine PPL-Prüfung bestanden! Herzlichen Glückwunsch und weiterhin Happy Landings! +++ Wir begrüßen Karsten in den Reihen der FFG! Viel Erfolg bei der Ausbildung! +++ Gianluca hat seine PPL-Prüfung bestanden! Herzlichen Glückwunsch und weiterhin Happy Landings! +++ Wir heißen Jan-Philipp als neues Mitglied der FFG willkommen! Viel Spass und always Happy Landings! +++ Herzlich willkommen bei der FFG, Christian! Wir wünschen Dir viel Spass und always Happy Landings! +++ Wir begrüßen Frederik Jan als neues Mitglied der FFG! Viel Erfolg bei der Ausbildung! +++ Ilya hat seine praktische PPL(A)-Prüfung bestanden! Gratulation und weiterhin Happy Landings! +++ Michael hat seinen ersten Alleinflug absolviert! Herzlichen Glückwunsch und weiterhin Happy Landings! +++ Torsten hat seine Prüferberechtigung zum CRE erhalten, herzlichen Glückwunsch! +++ Wir begrüßen Holger als neues Mitglied der FFG! Viel Erfolg bei der Ausbildung!

Webcam Wetter am Flughafen Braunschweig-Wolfsburg Richtung Norden. Das Bild wird alle 60 Sekunden aktualisiert.

Neues Bild in 60 Sekunden

Letztes NOTAM EDVE
von 03.12.2020 0000Z bis 01.03.2021 2359Z
DUE TO OUTAGE OF DLE DVOR/DME THE FLW CHANGES TO SID OCCUR: GPS/FMS RNAV OVERLAY REMAIN UNCHANGED. AMEND DLE DVOR/DME TO READ DLE INT. [more]

Letztes NOTAM EDCB
von 21.12.2020 0001Z bis 10.01.2021 2359Z
DEC 21-JAN 03 AD CLSD. JAN 04-JAN 10 PPR 0900-1400.

Letztes NOTAM EDBC
von 01.12.2020 2101Z bis 26.02.2021 2359Z
COCHSTEDT CTR DEACTIVATED.

Letztes NOTAM EDVM
von 13.11.2020 1500Z bis 28.02.2021 1830Z
GRAS RWY 07/25 AVBL PPR.

Letztes NOTAM EDOV
von 21.12.2020 0001Z bis 10.01.2021 2359Z
DEC 21-DEC 23 AND JAN 07-JAN 10 AD PPR. PPR REQ 24HR IN ADVANCE VIA E-MAIL FLUGPLATZ-STENDAL(AT)T-ONLINE.DE. DEC 24-JAN 06 AD CLSD. <[more]

von 01.12.2020 0000Z bis 28.02.2021 2359Z
AD PPR. PPR REQ VIA TEL +49 (0) 163 5744126 OR +49 (0) 5271 6999060.

Letztes NOTAM EDDV
von 07.12.2020 0800Z bis 07.12.2020 1100Z
TWY L CLSD BTN APRON AND TWY M.

Letztes NOTAM EDVK
von 25.11.2020 0741Z bis 22.02.2021 2359Z
ILS AND LOC APCH RWY 27 FROM LUXUX AND WRB TEMP SUSPENDED, DUE TO OBST. RNAV(GPS) APCH AVBL. REF AIP AD 2 EDVK 4-2-1 EFF 28 FEB 2019. [more]

Letztes NOTAM EDVS
von 02.11.2020 0755Z bis 01.02.2021 2359Z
AD AVBL ONLY FOR HOMEBASED PILOTS.

          aerodata150